Nicolai Vestergaard

Recruteur - Esbjerg
20 Févr 2028
Dimanche
Processus

Personnalité

Adaptabilité (17) Ambition (15) Controverse (10) Loyauté (4) Pression (19) Professionnalisme (19) Sportivité (18) Tempérament (3)

Profil

Style d'entraînement Démocratique
Diplôme Continental Pro
Détermination 5
Gestion des joueurs 11
Motivation 9
Discipline 12
Satisfaction professionnelle
89%
Fatigue
0%
Rôle Recruteur
Salaire 44.6K p/s
Contrat 14.03.2029

Performance

Comportement Bon
Efficacité de l'entraînement
47%
Développement des joueurs
25%
Prévention des blessures
50%
Mise en place tactique
50%

Événements récents

A participé à une réunion de recrutement maintenant
Anniversaire 7j
A participé à une réunion de recrutement 7j
A recommandé une cible de transfert 7j
A recommandé une cible de transfert 7j
A participé à une réunion de recrutement 14j
A recommandé une cible de transfert 14j
A recommandé une cible de transfert 14j

Suivi en cours

64
Joueur Club Statut Capacité Confiance Observé Dernière observation Dernier vote
Kenay Myrie FC Copenhagen Actif 90 / 115 58% 1 31.01.2028 Approuver
Gunnar Orri Olsen FC Copenhagen Actif 96 / 93 58% 1 10.01.2028 Approuver
Abdul Daramy FC Copenhagen Actif 88 / 104 51% 1 14.06.2027 -
Aune Heggebø West Bromwich Albion Actif 128 / 131 40% 2 29.05.2027 -
Tom Cannon Sheffield United Actif 130 / 128 40% 3 29.05.2027 -
Kelly Saravanan Salford City Actif 109 / 104 40% 1 28.05.2027 -
Lorent Tolaj Plymouth Argyle Actif 128 / 125 40% 2 25.05.2027 -
Harry Leonard Peterborough United Actif 99 / 119 40% 2 25.05.2027 -
Mandla Mahlangu Ajax Cape Town Actif 97 / 120 40% 6 21.05.2027 -
Lee Bonis Chesterfield Actif 109 / 106 40% 1 21.05.2027 -
Lewis McCann Fleetwood Town Actif 91 / 92 40% 1 19.05.2027 -
Richard Koné Queens Park Rangers Actif 119 / 129 40% 4 16.05.2027 -
Tyrese Campbell Sheffield United Actif 127 / 130 40% 3 15.05.2027 -
Promise Omochere Bristol Rovers Actif 108 / 95 40% 1 08.05.2027 -
Mathias Jørgensen Blackburn Rovers Actif 122 / 113 40% 2 05.05.2027 -
Jayden Wareham Barnet Actif 92 / 106 40% 1 01.05.2027 -
Robert Mizo Ashanti Gold Actif 91 / 115 40% 2 29.04.2027 -
Niall Ennis Blackpool Actif 122 / 105 40% 3 26.04.2027 -
Luis Vázquez Birmingham Actif 126 / 132 40% 1 26.04.2027 -
Cameron Archer Southampton Actif 120 / 119 40% 1 17.04.2027 -
Joe Gelhardt Hull City Actif 124 / 135 40% 1 11.04.2027 -
Iwan Morgan Grimsby Town Actif 122 / 123 40% 1 11.04.2027 -
Malik Mothersille Stockport County Actif 115 / 110 40% 1 10.04.2027 -
Evidence Makgopa Orlando Pirates Actif 109 / 113 40% 2 09.04.2027 -
Kwame Opoku Asante Kotoko Actif 108 / 105 40% 1 09.04.2027 -
Yousef Salech Cardiff City Actif 138 / 118 40% 1 07.04.2027 -
Sayfallah Ltaief Cracovia Actif 122 / 113 40% 2 31.12.2026 -
Finn Azaz Southampton Actif 140 / 126 40% 1 31.12.2026 -
Edward Chilufya FC Midtjylland Actif 128 / 118 40% 3 28.12.2026 -
Isaiah Jones Luton Town Actif 119 / 111 40% 1 26.12.2026 -
Derensili Sanches Fernandes Huddersfield Town Actif 114 / 115 40% 3 24.12.2026 -
Tomás González Piast Actif 117 / 110 40% 1 24.12.2026 -
Ruben van Bommel Ferencvaros Actif 136 / 127 40% 1 24.12.2026 -
Themba Ngcobo SuperSport United Actif 122 / 112 40% 2 20.12.2026 -
Martin Sekulić Ural Actif 105 / 114 40% 1 20.12.2026 -
Florentino Luís Ipswich Town Actif 142 / 145 40% 1 19.12.2026 Plus d'infos
Mduduzi Shabalala Kaizer Chiefs Actif 120 / 104 40% 1 18.12.2026 -
Suleiman Camara Slovan Bratislava Actif 116 / 116 40% 1 16.12.2026 -
Kwame Poku Queens Park Rangers Actif 134 / 118 40% 1 14.12.2026 -
Welington Southampton Actif 143 / 125 40% 1 14.12.2026 -
Filip Bundgaard Brondby Actif 113 / 129 40% 2 10.12.2026 -
Williams Manyama SuperSport United Actif 134 / 125 40% 1 10.12.2026 -
Robert FC Copenhagen Actif 129 / 132 40% 2 08.12.2026 -
Ulrik Yttergård Jenssen OB Actif 114 / 126 40% 2 08.12.2026 -
Nikolas Dyhr Randers Actif 107 / 126 40% 1 08.12.2026 -
Dejan Joveljić Seattle Sounders Actif 110 / 128 40% 1 20.11.2026 -
Lewis Morgan SuperSport United Actif 135 / 127 40% 2 19.11.2026 -
Joaquín Gho Argentinos Juniors Actif 103 / 120 40% 1 19.11.2026 -
Rasmus Kristensen FC Midtjylland Actif 138 / 137 40% 1 17.11.2026 -
José Florentín Independiente Rivadavia Actif 131 / 112 40% 1 03.11.2026 -
David Miculescu FCSB Actif 117 / 117 40% 1 28.10.2026 -
Demba Seck Partizan Actif 129 / 125 40% 1 22.10.2026 -
David Ankeye Zeleznicar Pancevo Actif 116 / 106 40% 1 16.10.2026 -
Martín Ojeda Orlando City Actif 136 / 119 40% 1 16.10.2026 -
Dorian Hanza Viborg Actif 99 / 111 40% 1 15.10.2026 -
Agustín Anello Philadelphia Union Actif 125 / 125 40% 1 11.10.2026 -
Ayoub Jabbari FC Cincinnati Actif 116 / 96 40% 1 09.10.2026 -
Ryan Gauld Vancouver Whitecaps Actif 116 / 141 40% 2 05.10.2026 -
Youssef Maziz Colorado Rapids Actif 132 / 132 40% 1 05.10.2026 -
Conrad Wallem Austria Wien Actif 138 / 126 40% 1 10.09.2026 -
Malte Amundsen Columbus Crew Actif 122 / 123 40% 1 08.09.2026 -
Bénie Traoré New York City Actif 136 / 138 40% 1 07.09.2026 -
José Gayà Valencia Actif 131 / 146 40% 1 01.08.2026 -
Brenden Aaronson Leeds United Actif 134 / 130 40% 1 01.08.2026 -